sensor_id;sensor_type;location;lat;lon;timestamp;temperature;humidity
4520;DHT22;2272;49.226;8.108;2022-08-21T00:00:43;16.50;99.90
4520;DHT22;2272;49.226;8.108;2022-08-21T00:03:11;16.50;99.90
4520;DHT22;2272;49.226;8.108;2022-08-21T00:05:44;16.40;99.90
4520;DHT22;2272;49.226;8.108;2022-08-21T00:08:13;16.40;99.90
4520;DHT22;2272;49.226;8.108;2022-08-21T00:10:41;16.40;99.90
4520;DHT22;2272;49.226;8.108;2022-08-21T00:13:09;16.30;99.90
4520;DHT22;2272;49.226;8.108;2022-08-21T00:15:36;16.30;99.90
4520;DHT22;2272;49.226;8.108;2022-08-21T00:18:05;16.30;99.90
4520;DHT22;2272;49.226;8.108;2022-08-21T00:20:33;16.30;99.90
4520;DHT22;2272;49.226;8.108;2022-08-21T00:23:00;16.30;99.90
4520;DHT22;2272;49.226;8.108;2022-08-21T00:25:29;16.20;99.90
4520;DHT22;2272;49.226;8.108;2022-08-21T00:27:56;16.20;99.90
4520;DHT22;2272;49.226;8.108;2022-08-21T00:30:24;16.20;99.90
4520;DHT22;2272;49.226;8.108;2022-08-21T00:32:52;16.10;99.90
4520;DHT22;2272;49.226;8.108;2022-08-21T00:35:21;16.20;99.90
4520;DHT22;2272;49.226;8.108;2022-08-21T00:37:49;16.10;99.90
4520;DHT22;2272;49.226;8.108;2022-08-21T00:40:20;16.10;99.90
4520;DHT22;2272;49.226;8.108;2022-08-21T00:42:49;16.10;99.90
4520;DHT22;2272;49.226;8.108;2022-08-21T00:45:16;16.10;99.90
4520;DHT22;2272;49.226;8.108;2022-08-21T00:47:43;16.10;99.90
4520;DHT22;2272;49.226;8.108;2022-08-21T00:50:11;16.20;99.90
4520;DHT22;2272;49.226;8.108;2022-08-21T00:52:39;16.20;99.90
4520;DHT22;2272;49.226;8.108;2022-08-21T00:55:08;16.10;99.90
4520;DHT22;2272;49.226;8.108;2022-08-21T00:57:39;16.10;99.90
4520;DHT22;2272;49.226;8.108;2022-08-21T01:00:13;16.10;99.90
4520;DHT22;2272;49.226;8.108;2022-08-21T01:02:40;16.00;99.90
4520;DHT22;2272;49.226;8.108;2022-08-21T01:05:07;15.90;99.90
4520;DHT22;2272;49.226;8.108;2022-08-21T01:07:35;15.80;99.90
4520;DHT22;2272;49.226;8.108;2022-08-21T01:10:02;15.70;99.90
4520;DHT22;2272;49.226;8.108;2022-08-21T01:12:29;15.60;99.90
4520;DHT22;2272;49.226;8.108;2022-08-21T01:14:56;15.50;99.90
4520;DHT22;2272;49.226;8.108;2022-08-21T01:17:26;15.40;99.90
4520;DHT22;2272;49.226;8.108;2022-08-21T01:19:57;15.40;99.90
4520;DHT22;2272;49.226;8.108;2022-08-21T01:22:25;15.30;99.90
4520;DHT22;2272;49.226;8.108;2022-08-21T01:24:52;15.30;99.90
4520;DHT22;2272;49.226;8.108;2022-08-21T01:27:19;15.20;99.90
4520;DHT22;2272;49.226;8.108;2022-08-21T01:29:51;15.30;99.90
4520;DHT22;2272;49.226;8.108;2022-08-21T01:32:20;15.30;99.90
4520;DHT22;2272;49.226;8.108;2022-08-21T01:34:49;15.30;99.90
4520;DHT22;2272;49.226;8.108;2022-08-21T01:37:16;15.30;99.90
4520;DHT22;2272;49.226;8.108;2022-08-21T01:39:45;15.30;99.90
4520;DHT22;2272;49.226;8.108;2022-08-21T01:42:12;15.20;99.90
4520;DHT22;2272;49.226;8.108;2022-08-21T01:44:39;15.20;99.90
4520;DHT22;2272;49.226;8.108;2022-08-21T01:47:09;15.10;99.90
4520;DHT22;2272;49.226;8.108;2022-08-21T01:49:37;15.10;99.90
4520;DHT22;2272;49.226;8.108;2022-08-21T01:52:05;15.10;99.90
4520;DHT22;2272;49.226;8.108;2022-08-21T01:54:32;15.10;99.90
4520;DHT22;2272;49.226;8.108;2022-08-21T01:57:01;15.00;99.90
4520;DHT22;2272;49.226;8.108;2022-08-21T01:59:28;15.10;99.90
4520;DHT22;2272;49.226;8.108;2022-08-21T02:01:58;15.10;99.90
4520;DHT22;2272;49.226;8.108;2022-08-21T02:04:25;15.00;99.90
4520;DHT22;2272;49.226;8.108;2022-08-21T02:06:52;15.00;99.90
4520;DHT22;2272;49.226;8.108;2022-08-21T02:09:19;15.10;99.90
4520;DHT22;2272;49.226;8.108;2022-08-21T02:11:47;15.10;99.90
4520;DHT22;2272;49.226;8.108;2022-08-21T02:14:16;15.10;99.90
4520;DHT22;2272;49.226;8.108;2022-08-21T02:16:43;15.10;99.90
4520;DHT22;2272;49.226;8.108;2022-08-21T02:19:12;15.10;99.90
4520;DHT22;2272;49.226;8.108;2022-08-21T02:21:41;15.00;99.90
4520;DHT22;2272;49.226;8.108;2022-08-21T02:24:08;15.00;99.90
4520;DHT22;2272;49.226;8.108;2022-08-21T02:26:35;14.90;99.90
4520;DHT22;2272;49.226;8.108;2022-08-21T02:29:03;14.80;99.90
4520;DHT22;2272;49.226;8.108;2022-08-21T02:31:31;14.90;99.90
4520;DHT22;2272;49.226;8.108;2022-08-21T02:33:58;14.90;99.90
4520;DHT22;2272;49.226;8.108;2022-08-21T02:36:25;14.90;99.90
4520;DHT22;2272;49.226;8.108;2022-08-21T02:38:52;15.00;99.90
4520;DHT22;2272;49.226;8.108;2022-08-21T02:41:20;15.10;99.90
4520;DHT22;2272;49.226;8.108;2022-08-21T02:43:47;15.00;99.90
4520;DHT22;2272;49.226;8.108;2022-08-21T02:46:16;15.00;99.90
4520;DHT22;2272;49.226;8.108;2022-08-21T02:48:45;15.00;99.90
4520;DHT22;2272;49.226;8.108;2022-08-21T02:51:16;14.90;99.90
4520;DHT22;2272;49.226;8.108;2022-08-21T02:53:44;14.90;99.90
4520;DHT22;2272;49.226;8.108;2022-08-21T02:56:13;14.90;99.90
4520;DHT22;2272;49.226;8.108;2022-08-21T02:58:43;14.90;99.90
4520;DHT22;2272;49.226;8.108;2022-08-21T03:01:10;14.90;99.90
4520;DHT22;2272;49.226;8.108;2022-08-21T03:03:38;14.80;99.90
4520;DHT22;2272;49.226;8.108;2022-08-21T03:06:10;14.90;99.90
4520;DHT22;2272;49.226;8.108;2022-08-21T03:08:37;14.80;99.90
4520;DHT22;2272;49.226;8.108;2022-08-21T03:11:04;14.80;99.90
4520;DHT22;2272;49.226;8.108;2022-08-21T03:13:32;14.80;99.90
4520;DHT22;2272;49.226;8.108;2022-08-21T03:15:59;14.80;99.90
4520;DHT22;2272;49.226;8.108;2022-08-21T03:18:26;14.80;99.90
4520;DHT22;2272;49.226;8.108;2022-08-21T03:20:53;14.80;99.90
4520;DHT22;2272;49.226;8.108;2022-08-21T03:23:21;14.70;99.90
4520;DHT22;2272;49.226;8.108;2022-08-21T03:25:48;14.70;99.90
4520;DHT22;2272;49.226;8.108;2022-08-21T03:28:17;14.70;99.90
4520;DHT22;2272;49.226;8.108;2022-08-21T03:30:47;14.70;99.90
4520;DHT22;2272;49.226;8.108;2022-08-21T03:33:14;14.70;99.90
4520;DHT22;2272;49.226;8.108;2022-08-21T03:35:42;14.70;99.90
4520;DHT22;2272;49.226;8.108;2022-08-21T03:38:09;14.60;99.90
4520;DHT22;2272;49.226;8.108;2022-08-21T03:40:39;14.50;99.90
4520;DHT22;2272;49.226;8.108;2022-08-21T03:43:06;14.50;99.90
4520;DHT22;2272;49.226;8.108;2022-08-21T03:45:35;14.50;99.90
4520;DHT22;2272;49.226;8.108;2022-08-21T03:48:03;14.50;99.90
4520;DHT22;2272;49.226;8.108;2022-08-21T03:50:34;14.50;99.90
4520;DHT22;2272;49.226;8.108;2022-08-21T03:53:01;14.40;99.90
4520;DHT22;2272;49.226;8.108;2022-08-21T03:55:28;14.40;99.90
4520;DHT22;2272;49.226;8.108;2022-08-21T03:57:56;14.30;99.90
4520;DHT22;2272;49.226;8.108;2022-08-21T04:00:24;14.30;99.90
4520;DHT22;2272;49.226;8.108;2022-08-21T04:02:51;14.20;99.90
4520;DHT22;2272;49.226;8.108;2022-08-21T04:05:19;14.20;99.90
4520;DHT22;2272;49.226;8.108;2022-08-21T04:07:54;14.10;99.90
4520;DHT22;2272;49.226;8.108;2022-08-21T04:10:21;14.00;99.90
4520;DHT22;2272;49.226;8.108;2022-08-21T04:12:48;14.00;99.90
4520;DHT22;2272;49.226;8.108;2022-08-21T04:15:18;13.90;99.90
4520;DHT22;2272;49.226;8.108;2022-08-21T04:17:45;13.90;99.90
4520;DHT22;2272;49.226;8.108;2022-08-21T04:20:12;13.90;99.90
4520;DHT22;2272;49.226;8.108;2022-08-21T04:22:39;13.90;99.90
4520;DHT22;2272;49.226;8.108;2022-08-21T04:25:06;13.90;99.90
4520;DHT22;2272;49.226;8.108;2022-08-21T04:27:33;13.90;99.90
4520;DHT22;2272;49.226;8.108;2022-08-21T04:30:00;13.90;99.90
4520;DHT22;2272;49.226;8.108;2022-08-21T04:32:35;13.90;99.90
4520;DHT22;2272;49.226;8.108;2022-08-21T04:35:04;13.80;99.90
4520;DHT22;2272;49.226;8.108;2022-08-21T04:37:31;13.90;99.90
4520;DHT22;2272;49.226;8.108;2022-08-21T04:39:58;13.90;99.90
4520;DHT22;2272;49.226;8.108;2022-08-21T04:42:25;13.90;99.90
4520;DHT22;2272;49.226;8.108;2022-08-21T04:44:53;14.00;99.90
4520;DHT22;2272;49.226;8.108;2022-08-21T04:47:20;14.00;99.90
4520;DHT22;2272;49.226;8.108;2022-08-21T04:49:48;14.00;99.90
4520;DHT22;2272;49.226;8.108;2022-08-21T04:52:21;14.00;99.90
4520;DHT22;2272;49.226;8.108;2022-08-21T04:54:49;14.00;99.90
4520;DHT22;2272;49.226;8.108;2022-08-21T04:57:18;14.10;99.90
4520;DHT22;2272;49.226;8.108;2022-08-21T04:59:48;14.30;99.90
4520;DHT22;2272;49.226;8.108;2022-08-21T05:02:17;14.30;99.90
4520;DHT22;2272;49.226;8.108;2022-08-21T05:04:50;14.40;99.90
4520;DHT22;2272;49.226;8.108;2022-08-21T05:07:21;14.50;99.90
4520;DHT22;2272;49.226;8.108;2022-08-21T05:09:49;14.40;99.90
4520;DHT22;2272;49.226;8.108;2022-08-21T05:12:15;14.50;99.90
4520;DHT22;2272;49.226;8.108;2022-08-21T05:14:42;14.60;99.90
4520;DHT22;2272;49.226;8.108;2022-08-21T05:17:09;14.60;99.90
4520;DHT22;2272;49.226;8.108;2022-08-21T05:19:36;14.70;99.90
4520;DHT22;2272;49.226;8.108;2022-08-21T05:22:04;14.80;99.90
4520;DHT22;2272;49.226;8.108;2022-08-21T05:24:31;14.90;99.90
4520;DHT22;2272;49.226;8.108;2022-08-21T05:26:58;15.00;99.90
4520;DHT22;2272;49.226;8.108;2022-08-21T05:29:25;15.00;99.90
4520;DHT22;2272;49.226;8.108;2022-08-21T05:31:52;15.10;99.90
4520;DHT22;2272;49.226;8.108;2022-08-21T05:34:20;15.20;99.90
4520;DHT22;2272;49.226;8.108;2022-08-21T05:36:48;15.40;99.90
4520;DHT22;2272;49.226;8.108;2022-08-21T05:39:16;15.50;99.90
4520;DHT22;2272;49.226;8.108;2022-08-21T05:41:43;15.70;99.90
4520;DHT22;2272;49.226;8.108;2022-08-21T05:44:10;15.90;99.90
4520;DHT22;2272;49.226;8.108;2022-08-21T05:49:04;16.30;99.90
4520;DHT22;2272;49.226;8.108;2022-08-21T05:58:54;16.80;99.90
4520;DHT22;2272;49.226;8.108;2022-08-21T06:01:23;17.00;99.90
4520;DHT22;2272;49.226;8.108;2022-08-21T06:03:50;17.10;99.90
4520;DHT22;2272;49.226;8.108;2022-08-21T06:06:17;17.30;99.90
4520;DHT22;2272;49.226;8.108;2022-08-21T06:08:44;17.30;99.90
4520;DHT22;2272;49.226;8.108;2022-08-21T06:11:11;17.30;99.90
4520;DHT22;2272;49.226;8.108;2022-08-21T06:13:39;17.40;99.90
4520;DHT22;2272;49.226;8.108;2022-08-21T06:16:09;17.50;99.90
4520;DHT22;2272;49.226;8.108;2022-08-21T06:18:37;17.60;99.90
4520;DHT22;2272;49.226;8.108;2022-08-21T06:21:05;17.60;99.90
